^^
Saratoga-Weather Station Historical Data
Daily Summary for January 27, 2022 Units:  Both    English   Metric
Daily Weekly Monthly Yearly Custom
  High: Low: Average:
Temperature: 35.8 °F /  2.1 °C 31.1 °F /  -0.5 °C 33.3 °F /  0.7 °C
Dew Point: 34.5 °F /  1.4 °C 29.7 °F /  -1.3 °C 31.8 °F /  -0.1 °C
Humidity: 95% 93% 94%
Wind Speed: 12.1mph /  19.5km/h - 2.7mph /  4.4km/h
Wind Gust: 14mph /  22.5km/h - -
Wind- - West
Pressure: 30.5 in /  1032.2 hPa 30.4 in /  1027.8 hPa -
Precipitation: 0.01 in /  0.2 mm    
Historical Graphs
 
 
Tabular Data for January 27, 2022
Time Temperature Dew Point Pressure Wind Wind Speed Wind Gust Humidity Rainfall Rate (Hourly) solar
00:01 31.6 °F /  -0.2 °C 30.2 °F /  -1 °C 30.5in /  1032.2hPa WSW 4mph /  6.4km/h 4mph /  6.4km/h 94% 0in /  0.0mm 0 W/m2
00:06 31.6 °F /  -0.2 °C 30.2 °F /  -1 °C 30.5in /  1032.2hPa WNW 2mph /  3.2km/h 3mph /  4.8km/h 94% 0in /  0.0mm 0 W/m2
00:11 31.6 °F /  -0.2 °C 30.2 °F /  -1 °C 30.5in /  1032.2hPa WNW 2mph /  3.2km/h 2mph /  3.2km/h 94% 0in /  0.0mm 0 W/m2
00:16 31.6 °F /  -0.2 °C 30.2 °F /  -1 °C 30.5in /  1032.2hPa West 0.9mph /  1.4km/h 4mph /  6.4km/h 94% 0in /  0.0mm 0 W/m2
00:21 31.6 °F /  -0.2 °C 30.2 °F /  -1 °C 30.5in /  1032.2hPa West 2.9mph /  4.7km/h 4mph /  6.4km/h 94% 0in /  0.0mm 0 W/m2
00:26 31.6 °F /  -0.2 °C 30.2 °F /  -1 °C 30.5in /  1032.2hPa WNW 0.9mph /  1.4km/h 4mph /  6.4km/h 94% 0in /  0.0mm 0 W/m2
00:31 31.6 °F /  -0.2 °C 30.2 °F /  -1 °C 30.5in /  1032.2hPa West 2mph /  3.2km/h 4mph /  6.4km/h 94% 0in /  0.0mm 0 W/m2
00:36 31.6 °F /  -0.2 °C 30.2 °F /  -1 °C 30.5in /  1032.2hPa NW 2.9mph /  4.7km/h 7mph /  11.3km/h 94% 0in /  0.0mm 0 W/m2
00:41 31.6 °F /  -0.2 °C 30.2 °F /  -1 °C 30.5in /  1032.2hPa WSW 4mph /  6.4km/h 4mph /  6.4km/h 94% 0in /  0.0mm 0 W/m2
00:46 31.6 °F /  -0.2 °C 30.2 °F /  -1 °C 30.5in /  1032.2hPa NW 4mph /  6.4km/h 6mph /  9.7km/h 94% 0in /  0.0mm 0 W/m2
00:52 31.6 °F /  -0.2 °C 30.2 °F /  -1 °C 30.5in /  1031.8hPa WSW 4mph /  6.4km/h 7mph /  11.3km/h 94% 0in /  0.0mm 0 W/m2
00:57 31.6 °F /  -0.2 °C 30.2 °F /  -1 °C 30.5in /  1031.8hPa West 6mph /  9.7km/h 8mph /  12.9km/h 94% 0in /  0.0mm 0 W/m2
01:02 31.6 °F /  -0.2 °C 30.2 °F /  -1 °C 30.5in /  1031.8hPa WNW 2mph /  3.2km/h 3mph /  4.8km/h 94% 0in /  0.0mm 0 W/m2
01:07 31.6 °F /  -0.2 °C 30.2 °F /  -1 °C 30.5in /  1031.8hPa NW 2mph /  3.2km/h 4mph /  6.4km/h 94% 0in /  0.0mm 0 W/m2
01:12 31.8 °F /  -0.1 °C 30.4 °F /  -0.9 °C 30.5in /  1031.5hPa NNW 2mph /  3.2km/h 4mph /  6.4km/h 94% 0in /  0.0mm 0 W/m2
01:17 31.8 °F /  -0.1 °C 30.4 °F /  -0.9 °C 30.5in /  1031.5hPa WSW 2mph /  3.2km/h 3mph /  4.8km/h 94% 0in /  0.0mm 0 W/m2
01:22 31.8 °F /  -0.1 °C 30.4 °F /  -0.9 °C 30.5in /  1031.5hPa NW 2.9mph /  4.7km/h 5mph /  8km/h 94% 0in /  0.0mm 0 W/m2
01:27 31.8 °F /  -0.1 °C 30.4 °F /  -0.9 °C 30.5in /  1031.5hPa Calm   2mph /  3.2km/h 94% 0in /  0.0mm 0 W/m2
01:32 31.8 °F /  -0.1 °C 30.4 °F /  -0.9 °C 30.5in /  1031.5hPa West 0.9mph /  1.4km/h 4mph /  6.4km/h 94% 0in /  0.0mm 0 W/m2
01:37 31.8 °F /  -0.1 °C 30.4 °F /  -0.9 °C 30.5in /  1031.2hPa West 0.9mph /  1.4km/h 4mph /  6.4km/h 94% 0in /  0.0mm 0 W/m2
01:42 31.8 °F /  -0.1 °C 30.4 °F /  -0.9 °C 30.5in /  1031.5hPa WNW 2mph /  3.2km/h 8mph /  12.9km/h 94% 0in /  0.0mm 0 W/m2
01:47 31.8 °F /  -0.1 °C 30.4 °F /  -0.9 °C 30.5in /  1031.5hPa West 2mph /  3.2km/h 3mph /  4.8km/h 94% 0in /  0.0mm 0 W/m2
01:52 31.8 °F /  -0.1 °C 30.4 °F /  -0.9 °C 30.5in /  1031.5hPa West 2.9mph /  4.7km/h 8mph /  12.9km/h 94% 0in /  0.0mm 0 W/m2
01:57 31.8 °F /  -0.1 °C 30.4 °F /  -0.9 °C 30.5in /  1031.2hPa West 0.9mph /  1.4km/h 6mph /  9.7km/h 94% 0in /  0.0mm 0 W/m2
02:02 31.8 °F /  -0.1 °C 30.4 °F /  -0.9 °C 30.5in /  1031.5hPa West 2.9mph /  4.7km/h 4mph /  6.4km/h 94% 0in /  0.0mm 0 W/m2
02:07 31.8 °F /  -0.1 °C 30.4 °F /  -0.9 °C 30.5in /  1031.5hPa NW 6mph /  9.7km/h 10mph /  16.1km/h 94% 0in /  0.0mm 0 W/m2
02:12 31.8 °F /  -0.1 °C 30.4 °F /  -0.9 °C 30.5in /  1031.5hPa NW 0.9mph /  1.4km/h 4mph /  6.4km/h 94% 0in /  0.0mm 0 W/m2
02:17 31.8 °F /  -0.1 °C 30.4 °F /  -0.9 °C 30.5in /  1031.5hPa WNW 0.9mph /  1.4km/h 2mph /  3.2km/h 94% 0in /  0.0mm 0 W/m2
02:22 31.8 °F /  -0.1 °C 30.4 °F /  -0.9 °C 30.5in /  1031.5hPa SW 4mph /  6.4km/h 4mph /  6.4km/h 94% 0in /  0.0mm 0 W/m2
02:27 31.8 °F /  -0.1 °C 30.4 °F /  -0.9 °C 30.5in /  1031.5hPa WNW 4.9mph /  7.9km/h 7mph /  11.3km/h 94% 0in /  0.0mm 0 W/m2
02:32 31.8 °F /  -0.1 °C 30.4 °F /  -0.9 °C 30.5in /  1031.5hPa NW 2.9mph /  4.7km/h 9mph /  14.5km/h 94% 0in /  0.0mm 0 W/m2
02:37 31.8 °F /  -0.1 °C 30.4 °F /  -0.9 °C 30.5in /  1031.5hPa West 6mph /  9.7km/h 8mph /  12.9km/h 94% 0in /  0.0mm 0 W/m2
02:42 31.8 °F /  -0.1 °C 30.4 °F /  -0.9 °C 30.5in /  1031.5hPa WNW 2mph /  3.2km/h 6mph /  9.7km/h 94% 0in /  0.0mm 0 W/m2
02:47 31.8 °F /  -0.1 °C 30.4 °F /  -0.9 °C 30.5in /  1031.5hPa West 2mph /  3.2km/h 3mph /  4.8km/h 94% 0in /  0.0mm 0 W/m2
02:52 32 °F /  0 °C 30.6 °F /  -0.8 °C 30.5in /  1031.5hPa NW 2mph /  3.2km/h 6mph /  9.7km/h 94% 0in /  0.0mm 0 W/m2
02:57 32 °F /  0 °C 30.6 °F /  -0.8 °C 30.5in /  1031.2hPa SW 4.9mph /  7.9km/h 5mph /  8km/h 94% 0in /  0.0mm 0 W/m2
03:02 32 °F /  0 °C 30.6 °F /  -0.8 °C 30.5in /  1031.2hPa West 2.9mph /  4.7km/h 6mph /  9.7km/h 94% 0in /  0.0mm 0 W/m2
03:07 32.2 °F /  0.1 °C 30.6 °F /  -0.8 °C 30.5in /  1031.2hPa WNW 0.9mph /  1.4km/h 4mph /  6.4km/h 94% 0in /  0.0mm 0 W/m2
03:12 32.2 °F /  0.1 °C 30.4 °F /  -0.9 °C 30.5in /  1031.2hPa NW 2mph /  3.2km/h 3mph /  4.8km/h 93% 0in /  0.0mm 0 W/m2
03:17 32.2 °F /  0.1 °C 30.4 °F /  -0.9 °C 30.5in /  1031.2hPa WNW 4mph /  6.4km/h 8mph /  12.9km/h 93% 0in /  0.0mm 0 W/m2
03:22 32.2 °F /  0.1 °C 30.4 °F /  -0.9 °C 30.5in /  1031.5hPa WNW 0.9mph /  1.4km/h 5mph /  8km/h 93% 0in /  0.0mm 0 W/m2
03:27 32.2 °F /  0.1 °C 30.4 °F /  -0.9 °C 30.5in /  1031.5hPa WNW 2mph /  3.2km/h 4mph /  6.4km/h 93% 0in /  0.0mm 0 W/m2
03:32 32.4 °F /  0.2 °C 30.6 °F /  -0.8 °C 30.5in /  1031.5hPa West 4mph /  6.4km/h 6mph /  9.7km/h 93% 0in /  0.0mm 0 W/m2
03:37 32.2 °F /  0.1 °C 30.4 °F /  -0.9 °C 30.5in /  1031.2hPa WSW 4.9mph /  7.9km/h 6mph /  9.7km/h 93% 0in /  0.0mm 0 W/m2
03:42 32.2 °F /  0.1 °C 30.4 °F /  -0.9 °C 30.5in /  1031.2hPa WNW 2mph /  3.2km/h 3mph /  4.8km/h 93% 0in /  0.0mm 0 W/m2
03:47 32.2 °F /  0.1 °C 30.4 °F /  -0.9 °C 30.5in /  1031.2hPa West 4mph /  6.4km/h 9mph /  14.5km/h 93% 0in /  0.0mm 0 W/m2
03:52 32.2 °F /  0.1 °C 30.4 °F /  -0.9 °C 30.5in /  1031.2hPa West 2mph /  3.2km/h 8mph /  12.9km/h 93% 0in /  0.0mm 0 W/m2
03:57 32.2 °F /  0.1 °C 30.4 °F /  -0.9 °C 30.5in /  1031.2hPa West 2mph /  3.2km/h 10mph /  16.1km/h 93% 0in /  0.0mm 0 W/m2
04:02 32.2 °F /  0.1 °C 30.4 °F /  -0.9 °C 30.5in /  1031.2hPa West 2mph /  3.2km/h 6mph /  9.7km/h 93% 0in /  0.0mm 0 W/m2
04:07 32.2 °F /  0.1 °C 30.4 °F /  -0.9 °C 30.5in /  1031.2hPa WNW 4mph /  6.4km/h 10mph /  16.1km/h 93% 0in /  0.0mm 0 W/m2
04:12 32.2 °F /  0.1 °C 30.4 °F /  -0.9 °C 30.5in /  1031.2hPa West 11mph /  17.7km/h 12mph /  19.3km/h 93% 0in /  0.0mm 0 W/m2
04:17 32.2 °F /  0.1 °C 30.4 °F /  -0.9 °C 30.5in /  1031.2hPa West 2mph /  3.2km/h 9mph /  14.5km/h 93% 0in /  0.0mm 0 W/m2
04:22 32.2 °F /  0.1 °C 30.4 °F /  -0.9 °C 30.4in /  1030.8hPa NNW 8.1mph /  13km/h 12mph /  19.3km/h 93% 0in /  0.0mm 0 W/m2
04:27 32.2 °F /  0.1 °C 30.4 °F /  -0.9 °C 30.4in /  1030.8hPa WSW 2.9mph /  4.7km/h 10mph /  16.1km/h 93% 0in /  0.0mm 0 W/m2
04:32 32.2 °F /  0.1 °C 30.4 °F /  -0.9 °C 30.5in /  1031.2hPa West 8.1mph /  13km/h 10mph /  16.1km/h 93% 0in /  0.0mm 0 W/m2
04:37 32.2 °F /  0.1 °C 30.4 °F /  -0.9 °C 30.5in /  1031.2hPa West 6mph /  9.7km/h 11mph /  17.7km/h 93% 0in /  0.0mm 0 W/m2
04:42 32.2 °F /  0.1 °C 30.4 °F /  -0.9 °C 30.4in /  1030.8hPa West 6.9mph /  11.1km/h 7mph /  11.3km/h 93% 0in /  0.0mm 0 W/m2
04:47 32.2 °F /  0.1 °C 30.4 °F /  -0.9 °C 30.4in /  1030.5hPa NW 4mph /  6.4km/h 11mph /  17.7km/h 93% 0in /  0.0mm 0 W/m2
04:52 32.2 °F /  0.1 °C 30.4 °F /  -0.9 °C 30.4in /  1030.5hPa West 2mph /  3.2km/h 4mph /  6.4km/h 93% 0in /  0.0mm 0 W/m2
04:57 32.2 °F /  0.1 °C 30.4 °F /  -0.9 °C 30.4in /  1030.5hPa West 0.9mph /  1.4km/h 9mph /  14.5km/h 93% 0in /  0.0mm 0 W/m2
05:02 32.2 °F /  0.1 °C 30.4 °F /  -0.9 °C 30.4in /  1030.5hPa WSW 4mph /  6.4km/h 7mph /  11.3km/h 93% 0in /  0.0mm 0 W/m2
05:07 32.2 °F /  0.1 °C 30.6 °F /  -0.8 °C 30.4in /  1030.5hPa West 2mph /  3.2km/h 10mph /  16.1km/h 94% 0in /  0.0mm 0 W/m2
05:12 32.2 °F /  0.1 °C 30.6 °F /  -0.8 °C 30.4in /  1030.5hPa West 2.9mph /  4.7km/h 3mph /  4.8km/h 94% 0in /  0.0mm 0 W/m2
05:17 32.2 °F /  0.1 °C 30.6 °F /  -0.8 °C 30.4in /  1030.5hPa WSW 2.9mph /  4.7km/h 10mph /  16.1km/h 94% 0in /  0.0mm 0 W/m2
05:22 32 °F /  0 °C 30.6 °F /  -0.8 °C 30.4in /  1030.5hPa Calm   2mph /  3.2km/h 94% 0in /  0.0mm 0 W/m2
05:27 32 °F /  0 °C 30.6 °F /  -0.8 °C 30.4in /  1030.5hPa WNW 0.9mph /  1.4km/h 3mph /  4.8km/h 94% 0in /  0.0mm 0 W/m2
05:32 32 °F /  0 °C 30.6 °F /  -0.8 °C 30.4in /  1030.5hPa Calm   2mph /  3.2km/h 94% 0in /  0.0mm 0 W/m2
05:37 32 °F /  0 °C 30.6 °F /  -0.8 °C 30.4in /  1030.5hPa Calm   3mph /  4.8km/h 94% 0in /  0.0mm 0 W/m2
05:42 32 °F /  0 °C 30.6 °F /  -0.8 °C 30.4in /  1030.5hPa Calm   2mph /  3.2km/h 94% 0in /  0.0mm 0 W/m2
05:47 32 °F /  0 °C 30.6 °F /  -0.8 °C 30.4in /  1030.5hPa West 0.9mph /  1.4km/h 2mph /  3.2km/h 94% 0in /  0.0mm 0 W/m2
05:52 31.8 °F /  -0.1 °C 30.4 °F /  -0.9 °C 30.4in /  1030.5hPa Calm   1mph /  1.6km/h 94% 0in /  0.0mm 0 W/m2
05:57 31.8 °F /  -0.1 °C 30.4 °F /  -0.9 °C 30.4in /  1030.5hPa North 2mph /  3.2km/h 2mph /  3.2km/h 94% 0in /  0.0mm 0 W/m2
06:02 31.8 °F /  -0.1 °C 30.4 °F /  -0.9 °C 30.4in /  1030.5hPa WNW 2mph /  3.2km/h 5mph /  8km/h 94% 0in /  0.0mm 0 W/m2
06:07 31.8 °F /  -0.1 °C 30.4 °F /  -0.9 °C 30.4in /  1030.5hPa South 2mph /  3.2km/h 4mph /  6.4km/h 94% 0in /  0.0mm 0 W/m2
06:12 31.8 °F /  -0.1 °C 30.4 °F /  -0.9 °C 30.4in /  1030.5hPa West 2mph /  3.2km/h 5mph /  8km/h 94% 0in /  0.0mm 0 W/m2
06:17 31.6 °F /  -0.2 °C 30.2 °F /  -1 °C 30.4in /  1030.5hPa SW 2.9mph /  4.7km/h 6mph /  9.7km/h 94% 0in /  0.0mm 0 W/m2
06:22 31.6 °F /  -0.2 °C 30.2 °F /  -1 °C 30.4in /  1030.1hPa WNW 2mph /  3.2km/h 2mph /  3.2km/h 94% 0in /  0.0mm 0 W/m2
06:27 31.6 °F /  -0.2 °C 30.2 °F /  -1 °C 30.4in /  1030.1hPa SE 0.9mph /  1.4km/h 3mph /  4.8km/h 94% 0in /  0.0mm 0 W/m2
06:32 31.5 °F /  -0.3 °C 30 °F /  -1.1 °C 30.4in /  1030.1hPa NW 2mph /  3.2km/h 5mph /  8km/h 94% 0in /  0.0mm 0 W/m2
06:37 31.5 °F /  -0.3 °C 30 °F /  -1.1 °C 30.4in /  1030.1hPa Calm   2mph /  3.2km/h 94% 0in /  0.0mm 0 W/m2
06:42 31.5 °F /  -0.3 °C 30 °F /  -1.1 °C 30.4in /  1030.5hPa Calm   5mph /  8km/h 94% 0in /  0.0mm 0 W/m2
06:47 31.5 °F /  -0.3 °C 30 °F /  -1.1 °C 30.4in /  1030.5hPa Calm   2mph /  3.2km/h 94% 0in /  0.0mm 0 W/m2
06:52 31.5 °F /  -0.3 °C 30 °F /  -1.1 °C 30.4in /  1030.1hPa NW 0.9mph /  1.4km/h 5mph /  8km/h 94% 0in /  0.0mm 0 W/m2
06:57 31.3 °F /  -0.4 °C 29.8 °F /  -1.2 °C 30.4in /  1030.1hPa West 2.9mph /  4.7km/h 4mph /  6.4km/h 94% 0in /  0.0mm 0 W/m2
07:02 31.3 °F /  -0.4 °C 29.8 °F /  -1.2 °C 30.4in /  1030.1hPa Calm   1mph /  1.6km/h 94% 0in /  0.0mm 0 W/m2
07:07 31.3 °F /  -0.4 °C 30 °F /  -1.1 °C 30.4in /  1030.1hPa SE 2mph /  3.2km/h 4mph /  6.4km/h 95% 0in /  0.0mm 0 W/m2
07:12 31.3 °F /  -0.4 °C 29.8 °F /  -1.2 °C 30.4in /  1030.1hPa North 0.9mph /  1.4km/h 5mph /  8km/h 94% 0in /  0.0mm 0 W/m2
07:17 31.1 °F /  -0.5 °C 29.7 °F /  -1.3 °C 30.4in /  1030.1hPa ESE 2mph /  3.2km/h 2mph /  3.2km/h 94% 0in /  0.0mm 0 W/m2
07:22 31.1 °F /  -0.5 °C 29.7 °F /  -1.3 °C 30.4in /  1030.1hPa Calm   2mph /  3.2km/h 94% 0in /  0.0mm 0 W/m2
07:27 31.1 °F /  -0.5 °C 29.7 °F /  -1.3 °C 30.4in /  1030.1hPa Calm   3mph /  4.8km/h 94% 0in /  0.0mm 0 W/m2
07:32 31.1 °F /  -0.5 °C 29.7 °F /  -1.3 °C 30.4in /  1030.1hPa Calm   3mph /  4.8km/h 94% 0in /  0.0mm 0 W/m2
07:37 31.1 °F /  -0.5 °C 29.7 °F /  -1.3 °C 30.4in /  1030.1hPa NW 2mph /  3.2km/h 2mph /  3.2km/h 94% 0in /  0.0mm 0 W/m2
07:42 31.1 °F /  -0.5 °C 29.7 °F /  -1.3 °C 30.4in /  1030.1hPa NW 2mph /  3.2km/h 2mph /  3.2km/h 94% 0in /  0.0mm 0 W/m2
07:47 31.1 °F /  -0.5 °C 29.7 °F /  -1.3 °C 30.4in /  1030.1hPa North 2mph /  3.2km/h 2mph /  3.2km/h 94% 0in /  0.0mm 0 W/m2
07:52 31.1 °F /  -0.5 °C 29.7 °F /  -1.3 °C 30.4in /  1030.1hPa WSW 4mph /  6.4km/h 7mph /  11.3km/h 94% 0in /  0.0mm 0 W/m2
07:57 31.1 °F /  -0.5 °C 29.7 °F /  -1.3 °C 30.4in /  1030.1hPa NW 2mph /  3.2km/h 2mph /  3.2km/h 94% 0in /  0.0mm 0 W/m2
08:02 31.1 °F /  -0.5 °C 29.7 °F /  -1.3 °C 30.4in /  1030.1hPa WNW 4mph /  6.4km/h 4mph /  6.4km/h 94% 0in /  0.0mm 0 W/m2
08:07 31.1 °F /  -0.5 °C 29.7 °F /  -1.3 °C 30.4in /  1030.1hPa Calm   2mph /  3.2km/h 94% 0in /  0.0mm 0 W/m2
08:12 31.1 °F /  -0.5 °C 29.7 °F /  -1.3 °C 30.4in /  1030.1hPa North 0.9mph /  1.4km/h 2mph /  3.2km/h 94% 0in /  0.0mm 0 W/m2
08:17 31.3 °F /  -0.4 °C 29.8 °F /  -1.2 °C 30.4in /  1030.1hPa Calm   2mph /  3.2km/h 94% 0in /  0.0mm 0 W/m2
08:22 31.3 °F /  -0.4 °C 29.8 °F /  -1.2 °C 30.4in /  1030.5hPa West 2.9mph /  4.7km/h 8mph /  12.9km/h 94% 0in /  0.0mm 0 W/m2
08:27 31.3 °F /  -0.4 °C 29.8 °F /  -1.2 °C 30.4in /  1030.5hPa Calm   2mph /  3.2km/h 94% 0in /  0.0mm 0 W/m2
08:32 31.3 °F /  -0.4 °C 30 °F /  -1.1 °C 30.4in /  1030.5hPa NW 2mph /  3.2km/h 8mph /  12.9km/h 95% 0in /  0.0mm 0 W/m2
08:37 31.3 °F /  -0.4 °C 30 °F /  -1.1 °C 30.4in /  1030.5hPa SW 2mph /  3.2km/h 3mph /  4.8km/h 95% 0in /  0.0mm 0 W/m2
08:42 31.3 °F /  -0.4 °C 29.8 °F /  -1.2 °C 30.4in /  1030.1hPa NW 2mph /  3.2km/h 4mph /  6.4km/h 94% 0in /  0.0mm 5 W/m2
08:47 31.5 °F /  -0.3 °C 30.2 °F /  -1 °C 30.4in /  1030.1hPa WSW 4.9mph /  7.9km/h 6mph /  9.7km/h 95% 0in /  0.0mm 5 W/m2
08:52 31.5 °F /  -0.3 °C 30.2 °F /  -1 °C 30.4in /  1030.1hPa NNE 0.9mph /  1.4km/h 4mph /  6.4km/h 95% 0in /  0.0mm 7 W/m2
08:57 31.5 °F /  -0.3 °C 30.2 °F /  -1 °C 30.4in /  1030.1hPa West 2mph /  3.2km/h 4mph /  6.4km/h 95% 0in /  0.0mm 7 W/m2
09:02 31.5 °F /  -0.3 °C 30.2 °F /  -1 °C 30.4in /  1030.1hPa NNW 0.9mph /  1.4km/h 3mph /  4.8km/h 95% 0in /  0.0mm 7 W/m2
09:07 31.5 °F /  -0.3 °C 30.2 °F /  -1 °C 30.4in /  1030.1hPa SW 0.9mph /  1.4km/h 8mph /  12.9km/h 95% 0in /  0.0mm 9 W/m2
09:12 31.5 °F /  -0.3 °C 30.2 °F /  -1 °C 30.4in /  1030.1hPa NW 0.9mph /  1.4km/h 3mph /  4.8km/h 95% 0in /  0.0mm 11 W/m2
09:17 31.6 °F /  -0.2 °C 30.4 °F /  -0.9 °C 30.4in /  1030.1hPa NW 0.9mph /  1.4km/h 8mph /  12.9km/h 95% 0in /  0.0mm 12 W/m2
09:22 31.6 °F /  -0.2 °C 30.4 °F /  -0.9 °C 30.4in /  1030.1hPa SE 0.9mph /  1.4km/h 3mph /  4.8km/h 95% 0in /  0.0mm 12 W/m2
09:27 31.6 °F /  -0.2 °C 30.4 °F /  -0.9 °C 30.4in /  1030.1hPa WSW 2.9mph /  4.7km/h 3mph /  4.8km/h 95% 0in /  0.0mm 12 W/m2
09:32 31.6 °F /  -0.2 °C 30.4 °F /  -0.9 °C 30.4in /  1030.1hPa West 0.9mph /  1.4km/h 2mph /  3.2km/h 95% 0in /  0.0mm 19 W/m2
09:37 31.6 °F /  -0.2 °C 30.4 °F /  -0.9 °C 30.4in /  1029.8hPa West 0.9mph /  1.4km/h 3mph /  4.8km/h 95% 0in /  0.0mm 21 W/m2
09:42 31.6 °F /  -0.2 °C 30.4 °F /  -0.9 °C 30.4in /  1029.8hPa Calm   4mph /  6.4km/h 95% 0in /  0.0mm 19 W/m2
09:47 31.6 °F /  -0.2 °C 30.4 °F /  -0.9 °C 30.4in /  1030.1hPa NNW 2mph /  3.2km/h 2mph /  3.2km/h 95% 0in /  0.0mm 14 W/m2
09:52 31.8 °F /  -0.1 °C 30.6 °F /  -0.8 °C 30.4in /  1030.1hPa NNW 0.9mph /  1.4km/h 2mph /  3.2km/h 95% 0in /  0.0mm 14 W/m2
09:57 31.8 °F /  -0.1 °C 30.6 °F /  -0.8 °C 30.4in /  1029.8hPa WSW 0.9mph /  1.4km/h 6mph /  9.7km/h 95% 0in /  0.0mm 18 W/m2
10:02 31.8 °F /  -0.1 °C 30.6 °F /  -0.8 °C 30.4in /  1029.8hPa NNW 2mph /  3.2km/h 5mph /  8km/h 95% 0in /  0.0mm 21 W/m2
10:08 31.8 °F /  -0.1 °C 30.6 °F /  -0.8 °C 30.4in /  1029.8hPa WNW 0.9mph /  1.4km/h 6mph /  9.7km/h 95% 0in /  0.0mm 21 W/m2
10:13 31.8 °F /  -0.1 °C 30.6 °F /  -0.8 °C 30.4in /  1029.8hPa WNW 2mph /  3.2km/h 4mph /  6.4km/h 95% 0in /  0.0mm 26 W/m2
10:18 31.8 °F /  -0.1 °C 30.6 °F /  -0.8 °C 30.4in /  1030.1hPa WNW 2mph /  3.2km/h 8mph /  12.9km/h 95% 0in /  0.0mm 26 W/m2
10:23 32 °F /  0 °C 30.7 °F /  -0.7 °C 30.4in /  1030.1hPa NNW 2.9mph /  4.7km/h 4mph /  6.4km/h 95% 0in /  0.0mm 30 W/m2
10:28 32 °F /  0 °C 30.7 °F /  -0.7 °C 30.4in /  1030.1hPa West 6mph /  9.7km/h 6mph /  9.7km/h 95% 0in /  0.0mm 33 W/m2
10:33 32 °F /  0 °C 30.6 °F /  -0.8 °C 30.4in /  1030.1hPa WSW 2mph /  3.2km/h 3mph /  4.8km/h 94% 0in /  0.0mm 35 W/m2
10:38 32.2 °F /  0.1 °C 30.6 °F /  -0.8 °C 30.4in /  1030.1hPa Calm   2mph /  3.2km/h 94% 0in /  0.0mm 33 W/m2
10:43 32.2 °F /  0.1 °C 30.6 °F /  -0.8 °C 30.4in /  1030.1hPa WNW 0.9mph /  1.4km/h 2mph /  3.2km/h 94% 0in /  0.0mm 35 W/m2
10:48 32.2 °F /  0.1 °C 30.6 °F /  -0.8 °C 30.4in /  1030.1hPa North 4mph /  6.4km/h 4mph /  6.4km/h 94% 0in /  0.0mm 39 W/m2
10:53 32.2 °F /  0.1 °C 30.6 °F /  -0.8 °C 30.4in /  1029.8hPa West 2mph /  3.2km/h 3mph /  4.8km/h 94% 0in /  0.0mm 53 W/m2
10:58 32.4 °F /  0.2 °C 30.7 °F /  -0.7 °C 30.4in /  1029.8hPa Calm   2mph /  3.2km/h 94% 0in /  0.0mm 60 W/m2
11:03 32.4 °F /  0.2 °C 30.7 °F /  -0.7 °C 30.4in /  1029.8hPa Calm   2mph /  3.2km/h 94% 0in /  0.0mm 60 W/m2
11:08 32.4 °F /  0.2 °C 30.7 °F /  -0.7 °C 30.4in /  1029.8hPa NW 2.9mph /  4.7km/h 6mph /  9.7km/h 94% 0in /  0.0mm 53 W/m2
11:13 32.5 °F /  0.3 °C 30.9 °F /  -0.6 °C 30.4in /  1030.1hPa SSW 0.9mph /  1.4km/h 9mph /  14.5km/h 94% 0in /  0.0mm 58 W/m2
11:18 32.5 °F /  0.3 °C 30.9 °F /  -0.6 °C 30.4in /  1029.8hPa WSW 2.9mph /  4.7km/h 11mph /  17.7km/h 94% 0in /  0.0mm 70 W/m2
11:23 32.5 °F /  0.3 °C 30.9 °F /  -0.6 °C 30.4in /  1029.5hPa WSW 2.9mph /  4.7km/h 7mph /  11.3km/h 94% 0in /  0.0mm 84 W/m2
11:28 32.7 °F /  0.4 °C 31.1 °F /  -0.5 °C 30.4in /  1029.8hPa WNW 6.9mph /  11.1km/h 10mph /  16.1km/h 94% 0in /  0.0mm 102 W/m2
11:33 32.7 °F /  0.4 °C 31.1 °F /  -0.5 °C 30.4in /  1029.5hPa NW 2.9mph /  4.7km/h 7mph /  11.3km/h 94% 0in /  0.0mm 114 W/m2
11:38 32.9 °F /  0.5 °C 31.3 °F /  -0.4 °C 30.4in /  1029.5hPa SW 2mph /  3.2km/h 6mph /  9.7km/h 94% 0in /  0.0mm 79 W/m2
11:43 32.9 °F /  0.5 °C 31.3 °F /  -0.4 °C 30.4in /  1029.8hPa WSW 2mph /  3.2km/h 7mph /  11.3km/h 94% 0in /  0.0mm 72 W/m2
11:48 33.1 °F /  0.6 °C 31.5 °F /  -0.3 °C 30.4in /  1029.8hPa East 0.9mph /  1.4km/h 7mph /  11.3km/h 94% 0in /  0.0mm 74 W/m2
11:53 33.1 °F /  0.6 °C 31.5 °F /  -0.3 °C 30.4in /  1029.5hPa SW 4mph /  6.4km/h 7mph /  11.3km/h 94% 0in /  0.0mm 107 W/m2
11:58 33.1 °F /  0.6 °C 31.5 °F /  -0.3 °C 30.4in /  1029.8hPa WNW 2mph /  3.2km/h 8mph /  12.9km/h 94% 0in /  0.0mm 95 W/m2
12:03 33.3 °F /  0.7 °C 31.6 °F /  -0.2 °C 30.4in /  1029.8hPa West 0.9mph /  1.4km/h 6mph /  9.7km/h 94% 0in /  0.0mm 83 W/m2
12:08 33.3 °F /  0.7 °C 31.6 °F /  -0.2 °C 30.4in /  1029.8hPa WNW 8.1mph /  13km/h 9mph /  14.5km/h 94% 0in /  0.0mm 72 W/m2
12:13 33.3 °F /  0.7 °C 31.5 °F /  -0.3 °C 30.4in /  1029.8hPa West 2mph /  3.2km/h 9mph /  14.5km/h 93% 0in /  0.0mm 88 W/m2
12:18 33.4 °F /  0.8 °C 31.8 °F /  -0.1 °C 30.4in /  1029.5hPa SW 2mph /  3.2km/h 5mph /  8km/h 94% 0in /  0.0mm 98 W/m2
12:23 33.4 °F /  0.8 °C 31.6 °F /  -0.2 °C 30.4in /  1029.5hPa NNW 4mph /  6.4km/h 5mph /  8km/h 93% 0in /  0.0mm 113 W/m2
12:28 33.4 °F /  0.8 °C 31.8 °F /  -0.1 °C 30.4in /  1029.5hPa WNW 2mph /  3.2km/h 10mph /  16.1km/h 94% 0in /  0.0mm 116 W/m2
12:33 33.6 °F /  0.9 °C 32 °F /  0 °C 30.4in /  1029.1hPa WNW 4mph /  6.4km/h 12mph /  19.3km/h 94% 0in /  0.0mm 121 W/m2
12:38 33.6 °F /  0.9 °C 32 °F /  0 °C 30.4in /  1029.1hPa NNW 2.9mph /  4.7km/h 5mph /  8km/h 94% 0in /  0.0mm 120 W/m2
12:43 33.6 °F /  0.9 °C 32 °F /  0 °C 30.4in /  1029.5hPa NW 8.1mph /  13km/h 12mph /  19.3km/h 94% 0in /  0.0mm 128 W/m2
12:48 33.6 °F /  0.9 °C 32 °F /  0 °C 30.4in /  1029.5hPa WNW 0.9mph /  1.4km/h 4mph /  6.4km/h 94% 0in /  0.0mm 97 W/m2
12:53 33.8 °F /  1 °C 32.2 °F /  0.1 °C 30.4in /  1029.1hPa NW 2.9mph /  4.7km/h 11mph /  17.7km/h 94% 0in /  0.0mm 84 W/m2
12:58 33.8 °F /  1 °C 32.2 °F /  0.1 °C 30.4in /  1029.1hPa West 0.9mph /  1.4km/h 7mph /  11.3km/h 94% 0in /  0.0mm 91 W/m2
13:03 33.8 °F /  1 °C 32.2 °F /  0.1 °C 30.4in /  1029.1hPa WNW 2.9mph /  4.7km/h 11mph /  17.7km/h 94% 0in /  0.0mm 132 W/m2
13:08 33.8 °F /  1 °C 32.2 °F /  0.1 °C 30.4in /  1028.8hPa NW 2.9mph /  4.7km/h 8mph /  12.9km/h 94% 0in /  0.0mm 142 W/m2
13:13 34 °F /  1.1 °C 32.4 °F /  0.2 °C 30.4in /  1028.8hPa SSW 4mph /  6.4km/h 11mph /  17.7km/h 94% 0in /  0.0mm 155 W/m2
13:18 34.2 °F /  1.2 °C 32.5 °F /  0.3 °C 30.4in /  1028.8hPa North 4mph /  6.4km/h 4mph /  6.4km/h 94% 0in /  0.0mm 155 W/m2
13:23 34.2 °F /  1.2 °C 32.5 °F /  0.3 °C 30.4in /  1028.8hPa NW 0.9mph /  1.4km/h 4mph /  6.4km/h 94% 0in /  0.0mm 218 W/m2
13:28 34.3 °F /  1.3 °C 32.7 °F /  0.4 °C 30.4in /  1028.8hPa WNW 4mph /  6.4km/h 8mph /  12.9km/h 94% 0in /  0.0mm 216 W/m2
13:33 34.3 °F /  1.3 °C 32.7 °F /  0.4 °C 30.4in /  1028.5hPa NW 0.9mph /  1.4km/h 9mph /  14.5km/h 94% 0in /  0.0mm 169 W/m2
13:38 34.3 °F /  1.3 °C 32.7 °F /  0.4 °C 30.4in /  1028.8hPa NW 0.9mph /  1.4km/h 2mph /  3.2km/h 94% 0in /  0.0mm 83 W/m2
13:43 34.3 °F /  1.3 °C 32.7 °F /  0.4 °C 30.4in /  1028.5hPa Calm   9mph /  14.5km/h 94% 0in /  0.0mm 54 W/m2
13:48 34.3 °F /  1.3 °C 32.7 °F /  0.4 °C 30.4in /  1028.5hPa West 6mph /  9.7km/h 8mph /  12.9km/h 94% 0in /  0.0mm 83 W/m2
13:53 34.2 °F /  1.2 °C 32.5 °F /  0.3 °C 30.4in /  1028.5hPa North 0.9mph /  1.4km/h 6mph /  9.7km/h 94% 0in /  0.0mm 72 W/m2
13:58 34.2 °F /  1.2 °C 32.5 °F /  0.3 °C 30.4in /  1028.1hPa WNW 2mph /  3.2km/h 10mph /  16.1km/h 94% 0in /  0.0mm 95 W/m2
14:03 34.2 °F /  1.2 °C 32.5 °F /  0.3 °C 30.4in /  1028.1hPa Calm   3mph /  4.8km/h 94% 0in /  0.0mm 86 W/m2
14:08 34.2 °F /  1.2 °C 32.5 °F /  0.3 °C 30.4in /  1028.1hPa Calm   4mph /  6.4km/h 94% 0in /  0.0mm 81 W/m2
14:13 34.2 °F /  1.2 °C 32.5 °F /  0.3 °C 30.4in /  1028.1hPa West 2.9mph /  4.7km/h 4mph /  6.4km/h 94% 0in /  0.0mm 69 W/m2
14:18 34.2 °F /  1.2 °C 32.5 °F /  0.3 °C 30.4in /  1028.1hPa WNW 2.9mph /  4.7km/h 4mph /  6.4km/h 94% 0in /  0.0mm 54 W/m2
14:23 34.2 °F /  1.2 °C 32.5 °F /  0.3 °C 30.4in /  1028.1hPa NNW 2mph /  3.2km/h 4mph /  6.4km/h 94% 0in /  0.0mm 69 W/m2
14:28 34.2 °F /  1.2 °C 32.5 °F /  0.3 °C 30.4in /  1028.1hPa NW 0.9mph /  1.4km/h 4mph /  6.4km/h 94% 0in /  0.0mm 69 W/m2
14:33 34.3 °F /  1.3 °C 32.7 °F /  0.4 °C 30.4in /  1028.1hPa WNW 2mph /  3.2km/h 3mph /  4.8km/h 94% 0in /  0.0mm 56 W/m2
14:38 34.3 °F /  1.3 °C 32.7 °F /  0.4 °C 30.4in /  1028.1hPa Calm   1mph /  1.6km/h 94% 0in /  0.0mm 49 W/m2
14:43 34.3 °F /  1.3 °C 32.7 °F /  0.4 °C 30.4in /  1027.8hPa North 0.9mph /  1.4km/h 4mph /  6.4km/h 94% 0in /  0.0mm 67 W/m2
14:48 34.3 °F /  1.3 °C 32.7 °F /  0.4 °C 30.4in /  1028.1hPa ESE 0.9mph /  1.4km/h 4mph /  6.4km/h 94% 0in /  0.0mm 76 W/m2
14:53 34.5 °F /  1.4 °C 32.9 °F /  0.5 °C 30.4in /  1028.1hPa WNW 6mph /  9.7km/h 6mph /  9.7km/h 94% 0in /  0.0mm 60 W/m2
14:58 34.5 °F /  1.4 °C 32.9 °F /  0.5 °C 30.4in /  1028.1hPa WNW 2.9mph /  4.7km/h 4mph /  6.4km/h 94% 0in /  0.0mm 60 W/m2
15:03 34.5 °F /  1.4 °C 32.9 °F /  0.5 °C 30.4in /  1027.8hPa ESE 2mph /  3.2km/h 3mph /  4.8km/h 94% 0in /  0.0mm 88 W/m2
15:08 34.5 °F /  1.4 °C 32.9 °F /  0.5 °C 30.4in /  1028.1hPa NW 4mph /  6.4km/h 9mph /  14.5km/h 94% 0in /  0.0mm 72 W/m2
15:13 34.5 °F /  1.4 °C 32.9 °F /  0.5 °C 30.4in /  1028.1hPa WNW 0.9mph /  1.4km/h 4mph /  6.4km/h 94% 0in /  0.0mm 56 W/m2
15:18 34.5 °F /  1.4 °C 32.9 °F /  0.5 °C 30.4in /  1028.1hPa WNW 2mph /  3.2km/h 5mph /  8km/h 94% 0in /  0.0mm 49 W/m2
15:23 34.5 °F /  1.4 °C 32.9 °F /  0.5 °C 30.4in /  1028.1hPa NNE 2.9mph /  4.7km/h 5mph /  8km/h 94% 0in /  0.0mm 39 W/m2
15:28 34.5 °F /  1.4 °C 32.9 °F /  0.5 °C 30.4in /  1028.1hPa West 2mph /  3.2km/h 3mph /  4.8km/h 94% 0in /  0.0mm 32 W/m2
15:33 34.5 °F /  1.4 °C 32.9 °F /  0.5 °C 30.4in /  1028.1hPa Calm   3mph /  4.8km/h 94% 0in /  0.0mm 39 W/m2
15:38 34.5 °F /  1.4 °C 32.9 °F /  0.5 °C 30.4in /  1028.1hPa North 2mph /  3.2km/h 3mph /  4.8km/h 94% 0in /  0.0mm 33 W/m2
15:43 34.5 °F /  1.4 °C 32.9 °F /  0.5 °C 30.4in /  1028.1hPa NW 2.9mph /  4.7km/h 8mph /  12.9km/h 94% 0in /  0.0mm 39 W/m2
15:48 34.5 °F /  1.4 °C 32.9 °F /  0.5 °C 30.4in /  1027.8hPa WNW 12.1mph /  19.5km/h 12mph /  19.3km/h 94% 0in /  0.0mm 44 W/m2
15:53 34.5 °F /  1.4 °C 32.9 °F /  0.5 °C 30.4in /  1027.8hPa South 0.9mph /  1.4km/h 3mph /  4.8km/h 94% 0in /  0.0mm 46 W/m2
15:58 34.5 °F /  1.4 °C 32.9 °F /  0.5 °C 30.4in /  1027.8hPa NW 12mph /  19.3km/h 12mph /  19.3km/h 94% 0in /  0.0mm 40 W/m2
16:03 34.5 °F /  1.4 °C 32.9 °F /  0.5 °C 30.4in /  1027.8hPa WSW 0.9mph /  1.4km/h 4mph /  6.4km/h 94% 0in /  0.0mm 32 W/m2
16:08 34.7 °F /  1.5 °C 33.1 °F /  0.6 °C 30.4in /  1027.8hPa SE 0.9mph /  1.4km/h 9mph /  14.5km/h 94% 0in /  0.0mm 28 W/m2
16:13 34.5 °F /  1.4 °C 32.9 °F /  0.5 °C 30.4in /  1028.1hPa NE 0.9mph /  1.4km/h 2mph /  3.2km/h 94% 0in /  0.0mm 21 W/m2
16:18 34.5 °F /  1.4 °C 32.9 °F /  0.5 °C 30.4in /  1028.1hPa South 2mph /  3.2km/h 9mph /  14.5km/h 94% 0in /  0.0mm 19 W/m2
16:23 34.5 °F /  1.4 °C 32.9 °F /  0.5 °C 30.4in /  1028.1hPa WSW 0.9mph /  1.4km/h 8mph /  12.9km/h 94% 0in /  0.0mm 19 W/m2
16:28 34.5 °F /  1.4 °C 32.9 °F /  0.5 °C 30.4in /  1027.8hPa Calm   4mph /  6.4km/h 94% 0in /  0.0mm 19 W/m2
16:33 34.5 °F /  1.4 °C 32.9 °F /  0.5 °C 30.4in /  1027.8hPa NW 2.9mph /  4.7km/h 5mph /  8km/h 94% 0in /  0.0mm 19 W/m2
16:38 34.5 °F /  1.4 °C 32.9 °F /  0.5 °C 30.4in /  1027.8hPa NW 2mph /  3.2km/h 3mph /  4.8km/h 94% 0in /  0.0mm 18 W/m2
16:43 34.7 °F /  1.5 °C 33.1 °F /  0.6 °C 30.4in /  1027.8hPa NW 2.9mph /  4.7km/h 10mph /  16.1km/h 94% 0in /  0.0mm 16 W/m2
16:48 34.7 °F /  1.5 °C 33.1 °F /  0.6 °C 30.4in /  1027.8hPa NW 2mph /  3.2km/h 7mph /  11.3km/h 94% 0in /  0.0mm 16 W/m2
16:53 34.7 °F /  1.5 °C 33.1 °F /  0.6 °C 30.4in /  1028.1hPa WNW 4.9mph /  7.9km/h 10mph /  16.1km/h 94% 0in /  0.0mm 12 W/m2
16:58 34.7 °F /  1.5 °C 33.1 °F /  0.6 °C 30.4in /  1028.1hPa WNW 6mph /  9.7km/h 6mph /  9.7km/h 94% 0in /  0.0mm 9 W/m2
17:03 34.7 °F /  1.5 °C 33.1 °F /  0.6 °C 30.4in /  1028.1hPa WNW 2mph /  3.2km/h 8mph /  12.9km/h 94% 0in /  0.0mm 7 W/m2
17:08 34.7 °F /  1.5 °C 33.1 °F /  0.6 °C 30.4in /  1028.1hPa WNW 4mph /  6.4km/h 8mph /  12.9km/h 94% 0in /  0.0mm 5 W/m2
17:13 34.5 °F /  1.4 °C 32.9 °F /  0.5 °C 30.4in /  1028.1hPa West 2.9mph /  4.7km/h 8mph /  12.9km/h 94% 0in /  0.0mm 0 W/m2
17:18 34.5 °F /  1.4 °C 32.9 °F /  0.5 °C 30.4in /  1028.1hPa WNW 0.9mph /  1.4km/h 8mph /  12.9km/h 94% 0in /  0.0mm 0 W/m2
17:23 34.5 °F /  1.4 °C 32.9 °F /  0.5 °C 30.4in /  1028.1hPa West 2.9mph /  4.7km/h 9mph /  14.5km/h 94% 0in /  0.0mm 0 W/m2
17:28 34.5 °F /  1.4 °C 32.9 °F /  0.5 °C 30.4in /  1028.1hPa West 2mph /  3.2km/h 10mph /  16.1km/h 94% 0in /  0.0mm 0 W/m2
17:33 34.5 °F /  1.4 °C 32.9 °F /  0.5 °C 30.4in /  1028.5hPa NW 8.1mph /  13km/h 8mph /  12.9km/h 94% 0in /  0.0mm 0 W/m2
17:38 34.5 °F /  1.4 °C 33.3 °F /  0.7 °C 30.4in /  1028.5hPa NNW 2.9mph /  4.7km/h 9mph /  14.5km/h 95% 0in /  0.0mm 0 W/m2
17:43 34.5 °F /  1.4 °C 33.3 °F /  0.7 °C 30.4in /  1028.5hPa NW 2mph /  3.2km/h 6mph /  9.7km/h 95% 0in /  0.0mm 0 W/m2
17:48 34.5 °F /  1.4 °C 33.3 °F /  0.7 °C 30.4in /  1028.1hPa WSW 4.9mph /  7.9km/h 6mph /  9.7km/h 95% 0in /  0.0mm 0 W/m2
17:53 34.5 °F /  1.4 °C 32.9 °F /  0.5 °C 30.4in /  1028.5hPa NNW 2mph /  3.2km/h 9mph /  14.5km/h 94% 0in /  0.0mm 0 W/m2
17:58 34.5 °F /  1.4 °C 33.3 °F /  0.7 °C 30.4in /  1028.5hPa NW 2mph /  3.2km/h 8mph /  12.9km/h 95% 0.01in /  0.2mm 0 W/m2
18:03 34.5 °F /  1.4 °C 32.9 °F /  0.5 °C 30.4in /  1028.5hPa WNW 4.9mph /  7.9km/h 11mph /  17.7km/h 94% 0.01in /  0.2mm 0 W/m2
18:08 34.3 °F /  1.3 °C 32.7 °F /  0.4 °C 30.4in /  1028.5hPa NW 2.9mph /  4.7km/h 9mph /  14.5km/h 94% 0.01in /  0.2mm 0 W/m2
18:13 34.5 °F /  1.4 °C 32.9 °F /  0.5 °C 30.4in /  1028.1hPa NNW 4mph /  6.4km/h 11mph /  17.7km/h 94% 0.01in /  0.2mm 0 W/m2
18:18 34.3 °F /  1.3 °C 33.1 °F /  0.6 °C 30.4in /  1028.5hPa West 2.9mph /  4.7km/h 12mph /  19.3km/h 95% 0.01in /  0.2mm 0 W/m2
18:23 34.3 °F /  1.3 °C 33.1 °F /  0.6 °C 30.4in /  1028.5hPa WNW 4mph /  6.4km/h 11mph /  17.7km/h 95% 0.01in /  0.2mm 0 W/m2
18:28 34.3 °F /  1.3 °C 33.1 °F /  0.6 °C 30.4in /  1028.5hPa West 0.9mph /  1.4km/h 8mph /  12.9km/h 95% 0.01in /  0.2mm 0 W/m2
18:33 34.3 °F /  1.3 °C 33.1 °F /  0.6 °C 30.4in /  1028.5hPa NW 2.9mph /  4.7km/h 4mph /  6.4km/h 95% 0.01in /  0.2mm 0 W/m2
18:38 34.3 °F /  1.3 °C 33.1 °F /  0.6 °C 30.4in /  1028.5hPa WNW 4mph /  6.4km/h 7mph /  11.3km/h 95% 0.01in /  0.2mm 0 W/m2
18:44 34.3 °F /  1.3 °C 33.1 °F /  0.6 °C 30.4in /  1028.5hPa NW 4.9mph /  7.9km/h 7mph /  11.3km/h 95% 0.01in /  0.2mm 0 W/m2
18:49 34.3 °F /  1.3 °C 33.1 °F /  0.6 °C 30.4in /  1028.5hPa WNW 4mph /  6.4km/h 10mph /  16.1km/h 95% 0.01in /  0.2mm 0 W/m2
18:54 34.3 °F /  1.3 °C 33.1 °F /  0.6 °C 30.4in /  1028.5hPa West 2mph /  3.2km/h 9mph /  14.5km/h 95% 0.01in /  0.2mm 0 W/m2
18:59 34.3 °F /  1.3 °C 33.1 °F /  0.6 °C 30.4in /  1028.1hPa NW 4.9mph /  7.9km/h 9mph /  14.5km/h 95% 0in /  0.0mm 0 W/m2
19:04 34.3 °F /  1.3 °C 33.1 °F /  0.6 °C 30.4in /  1028.1hPa NW 0.9mph /  1.4km/h 4mph /  6.4km/h 95% 0in /  0.0mm 0 W/m2
19:09 34.3 °F /  1.3 °C 33.1 °F /  0.6 °C 30.4in /  1028.1hPa WSW 4.9mph /  7.9km/h 8mph /  12.9km/h 95% 0in /  0.0mm 0 W/m2
19:14 34.3 °F /  1.3 °C 33.1 °F /  0.6 °C 30.4in /  1028.1hPa WNW 4mph /  6.4km/h 7mph /  11.3km/h 95% 0in /  0.0mm 0 W/m2
19:19 34.3 °F /  1.3 °C 33.1 °F /  0.6 °C 30.4in /  1028.1hPa NW 2.9mph /  4.7km/h 6mph /  9.7km/h 95% 0in /  0.0mm 0 W/m2
19:24 34.3 °F /  1.3 °C 33.1 °F /  0.6 °C 30.4in /  1028.1hPa West 0.9mph /  1.4km/h 4mph /  6.4km/h 95% 0in /  0.0mm 0 W/m2
19:29 34.3 °F /  1.3 °C 33.1 °F /  0.6 °C 30.4in /  1028.5hPa NW 6.9mph /  11.1km/h 9mph /  14.5km/h 95% 0in /  0.0mm 0 W/m2
19:34 34.3 °F /  1.3 °C 33.1 °F /  0.6 °C 30.4in /  1028.5hPa WNW 10.1mph /  16.3km/h 10mph /  16.1km/h 95% 0in /  0.0mm 0 W/m2
19:39 34.3 °F /  1.3 °C 33.1 °F /  0.6 °C 30.4in /  1028.5hPa West 6.9mph /  11.1km/h 10mph /  16.1km/h 95% 0in /  0.0mm 0 W/m2
19:44 34.3 °F /  1.3 °C 33.1 °F /  0.6 °C 30.4in /  1028.5hPa WNW 4.9mph /  7.9km/h 7mph /  11.3km/h 95% 0in /  0.0mm 0 W/m2
19:49 34.3 °F /  1.3 °C 33.1 °F /  0.6 °C 30.4in /  1028.5hPa WNW 6.9mph /  11.1km/h 7mph /  11.3km/h 95% 0in /  0.0mm 0 W/m2
19:54 34.3 °F /  1.3 °C 33.1 °F /  0.6 °C 30.4in /  1028.5hPa West 4mph /  6.4km/h 12mph /  19.3km/h 95% 0in /  0.0mm 0 W/m2
19:59 34.5 °F /  1.4 °C 33.3 °F /  0.7 °C 30.4in /  1028.5hPa WNW 2.9mph /  4.7km/h 7mph /  11.3km/h 95% 0in /  0.0mm 0 W/m2
20:04 34.5 °F /  1.4 °C 33.3 °F /  0.7 °C 30.4in /  1028.8hPa NW 4mph /  6.4km/h 11mph /  17.7km/h 95% 0in /  0.0mm 0 W/m2
20:09 34.5 °F /  1.4 °C 33.3 °F /  0.7 °C 30.4in /  1028.8hPa WNW 10.1mph /  16.3km/h 12mph /  19.3km/h 95% 0in /  0.0mm 0 W/m2
20:14 34.5 °F /  1.4 °C 33.3 °F /  0.7 °C 30.4in /  1028.8hPa WSW 0.9mph /  1.4km/h 10mph /  16.1km/h 95% 0in /  0.0mm 0 W/m2
20:19 34.5 °F /  1.4 °C 33.3 °F /  0.7 °C 30.4in /  1028.8hPa WNW 2.9mph /  4.7km/h 7mph /  11.3km/h 95% 0in /  0.0mm 0 W/m2
20:24 34.5 °F /  1.4 °C 33.3 °F /  0.7 °C 30.4in /  1029.1hPa West 6.9mph /  11.1km/h 9mph /  14.5km/h 95% 0in /  0.0mm 0 W/m2
20:29 34.5 °F /  1.4 °C 33.3 °F /  0.7 °C 30.4in /  1029.1hPa NW 2mph /  3.2km/h 7mph /  11.3km/h 95% 0in /  0.0mm 0 W/m2
20:34 34.5 °F /  1.4 °C 33.3 °F /  0.7 °C 30.4in /  1029.5hPa West 6mph /  9.7km/h 11mph /  17.7km/h 95% 0in /  0.0mm 0 W/m2
20:39 34.5 °F /  1.4 °C 33.3 °F /  0.7 °C 30.4in /  1029.5hPa West 2mph /  3.2km/h 6mph /  9.7km/h 95% 0in /  0.0mm 0 W/m2
20:44 34.7 °F /  1.5 °C 33.4 °F /  0.8 °C 30.4in /  1029.1hPa WSW 2mph /  3.2km/h 13mph /  20.9km/h 95% 0in /  0.0mm 0 W/m2
20:49 34.7 °F /  1.5 °C 33.4 °F /  0.8 °C 30.4in /  1029.5hPa West 2.9mph /  4.7km/h 7mph /  11.3km/h 95% 0in /  0.0mm 0 W/m2
20:54 34.7 °F /  1.5 °C 33.4 °F /  0.8 °C 30.4in /  1029.5hPa NW 2.9mph /  4.7km/h 13mph /  20.9km/h 95% 0in /  0.0mm 0 W/m2
20:59 34.7 °F /  1.5 °C 33.4 °F /  0.8 °C 30.4in /  1029.5hPa WSW 4.9mph /  7.9km/h 9mph /  14.5km/h 95% 0in /  0.0mm 0 W/m2
21:04 34.9 °F /  1.6 °C 33.6 °F /  0.9 °C 30.4in /  1029.5hPa WSW 0.9mph /  1.4km/h 6mph /  9.7km/h 95% 0in /  0.0mm 0 W/m2
21:09 34.9 °F /  1.6 °C 33.6 °F /  0.9 °C 30.4in /  1029.5hPa West 2mph /  3.2km/h 4mph /  6.4km/h 95% 0in /  0.0mm 0 W/m2
21:14 34.9 °F /  1.6 °C 33.6 °F /  0.9 °C 30.4in /  1029.5hPa NW 2.9mph /  4.7km/h 3mph /  4.8km/h 95% 0in /  0.0mm 0 W/m2
21:19 34.9 °F /  1.6 °C 33.6 °F /  0.9 °C 30.4in /  1029.5hPa West 6mph /  9.7km/h 7mph /  11.3km/h 95% 0in /  0.0mm 0 W/m2
21:24 35.1 °F /  1.7 °C 33.8 °F /  1 °C 30.4in /  1029.8hPa WNW 4.9mph /  7.9km/h 6mph /  9.7km/h 95% 0in /  0.0mm 0 W/m2
21:29 35.1 °F /  1.7 °C 33.8 °F /  1 °C 30.4in /  1029.8hPa WNW 0.9mph /  1.4km/h 2mph /  3.2km/h 95% 0in /  0.0mm 0 W/m2
21:34 35.1 °F /  1.7 °C 33.8 °F /  1 °C 30.4in /  1029.8hPa ESE 0.9mph /  1.4km/h 2mph /  3.2km/h 95% 0in /  0.0mm 0 W/m2
21:39 35.1 °F /  1.7 °C 33.8 °F /  1 °C 30.4in /  1029.8hPa WSW 4mph /  6.4km/h 6mph /  9.7km/h 95% 0in /  0.0mm 0 W/m2
21:44 35.1 °F /  1.7 °C 33.8 °F /  1 °C 30.4in /  1030.1hPa Calm   6mph /  9.7km/h 95% 0in /  0.0mm 0 W/m2
21:49 35.1 °F /  1.7 °C 33.8 °F /  1 °C 30.4in /  1030.1hPa Calm   2mph /  3.2km/h 95% 0in /  0.0mm 0 W/m2
21:54 35.2 °F /  1.8 °C 34 °F /  1.1 °C 30.4in /  1030.1hPa NW 0.9mph /  1.4km/h 6mph /  9.7km/h 95% 0in /  0.0mm 0 W/m2
21:59 35.2 °F /  1.8 °C 34 °F /  1.1 °C 30.4in /  1030.1hPa NW 2mph /  3.2km/h 4mph /  6.4km/h 95% 0in /  0.0mm 0 W/m2
22:04 35.2 °F /  1.8 °C 34 °F /  1.1 °C 30.4in /  1030.1hPa West 0.9mph /  1.4km/h 5mph /  8km/h 95% 0in /  0.0mm 0 W/m2
22:09 35.2 °F /  1.8 °C 34 °F /  1.1 °C 30.4in /  1030.1hPa West 2mph /  3.2km/h 7mph /  11.3km/h 95% 0in /  0.0mm 0 W/m2
22:14 35.2 °F /  1.8 °C 34 °F /  1.1 °C 30.4in /  1030.1hPa WSW 2.9mph /  4.7km/h 6mph /  9.7km/h 95% 0in /  0.0mm 0 W/m2
22:19 35.2 °F /  1.8 °C 34 °F /  1.1 °C 30.4in /  1030.1hPa Calm   4mph /  6.4km/h 95% 0in /  0.0mm 0 W/m2
22:24 35.2 °F /  1.8 °C 34 °F /  1.1 °C 30.4in /  1030.1hPa West 2.9mph /  4.7km/h 9mph /  14.5km/h 95% 0in /  0.0mm 0 W/m2
22:29 35.2 °F /  1.8 °C 34 °F /  1.1 °C 30.4in /  1030.5hPa NW 2mph /  3.2km/h 6mph /  9.7km/h 95% 0in /  0.0mm 0 W/m2
22:34 35.2 °F /  1.8 °C 34 °F /  1.1 °C 30.4in /  1030.1hPa WSW 2mph /  3.2km/h 9mph /  14.5km/h 95% 0in /  0.0mm 0 W/m2
22:39 35.2 °F /  1.8 °C 34 °F /  1.1 °C 30.4in /  1030.1hPa WNW 2.9mph /  4.7km/h 6mph /  9.7km/h 95% 0in /  0.0mm 0 W/m2
22:44 35.2 °F /  1.8 °C 34 °F /  1.1 °C 30.4in /  1030.5hPa WNW 2mph /  3.2km/h 10mph /  16.1km/h 95% 0in /  0.0mm 0 W/m2
22:49 35.4 °F /  1.9 °C 34.2 °F /  1.2 °C 30.4in /  1030.5hPa West 6mph /  9.7km/h 11mph /  17.7km/h 95% 0in /  0.0mm 0 W/m2
22:54 35.4 °F /  1.9 °C 34.2 °F /  1.2 °C 30.4in /  1030.5hPa SW 4.9mph /  7.9km/h 13mph /  20.9km/h 95% 0in /  0.0mm 0 W/m2
22:59 35.4 °F /  1.9 °C 34.2 °F /  1.2 °C 30.4in /  1030.5hPa SW 2mph /  3.2km/h 6mph /  9.7km/h 95% 0in /  0.0mm 0 W/m2
23:04 35.4 °F /  1.9 °C 34.2 °F /  1.2 °C 30.4in /  1030.5hPa West 4mph /  6.4km/h 13mph /  20.9km/h 95% 0in /  0.0mm 0 W/m2
23:09 35.4 °F /  1.9 °C 34.2 °F /  1.2 °C 30.4in /  1030.5hPa WSW 6mph /  9.7km/h 13mph /  20.9km/h 95% 0in /  0.0mm 0 W/m2
23:14 35.8 °F /  2.1 °C 34.5 °F /  1.4 °C 30.4in /  1030.5hPa WNW 6.9mph /  11.1km/h 9mph /  14.5km/h 95% 0in /  0.0mm 0 W/m2
23:19 35.8 °F /  2.1 °C 34.5 °F /  1.4 °C 30.4in /  1030.5hPa SW 6mph /  9.7km/h 11mph /  17.7km/h 95% 0in /  0.0mm 0 W/m2
23:24 35.8 °F /  2.1 °C 34.5 °F /  1.4 °C 30.4in /  1030.8hPa West 6.9mph /  11.1km/h 14mph /  22.5km/h 95% 0in /  0.0mm 0 W/m2
23:29 35.8 °F /  2.1 °C 34.5 °F /  1.4 °C 30.4in /  1030.8hPa SW 6.9mph /  11.1km/h 13mph /  20.9km/h 95% 0in /  0.0mm 0 W/m2
23:34 35.8 °F /  2.1 °C 34.5 °F /  1.4 °C 30.4in /  1030.8hPa West 4mph /  6.4km/h 9mph /  14.5km/h 95% 0in /  0.0mm 0 W/m2
23:39 35.8 °F /  2.1 °C 34.5 °F /  1.4 °C 30.4in /  1030.8hPa West 6mph /  9.7km/h 8mph /  12.9km/h 95% 0in /  0.0mm 0 W/m2
23:44 35.8 °F /  2.1 °C 34.5 °F /  1.4 °C 30.4in /  1030.8hPa West 6mph /  9.7km/h 9mph /  14.5km/h 95% 0in /  0.0mm 0 W/m2
23:49 35.8 °F /  2.1 °C 34.5 °F /  1.4 °C 30.5in /  1031.2hPa WNW 4mph /  6.4km/h 9mph /  14.5km/h 95% 0in /  0.0mm 0 W/m2
23:54 35.8 °F /  2.1 °C 34.5 °F /  1.4 °C 30.5in /  1031.2hPa WNW 2.9mph /  4.7km/h 10mph /  16.1km/h 95% 0in /  0.0mm 0 W/m2
23:59 35.8 °F /  2.1 °C 34.5 °F /  1.4 °C 30.5in /  1031.2hPa WSW 2.9mph /  4.7km/h 11mph /  17.7km/h 95% 0in /  0.0mm 0 W/m2
Juneau County Weather
Compliments of Weather Underground - 4 mb